Pagina principale
METAR-TAF:

METAR-TAF

Aeroporti :

Saint-Nazaire, Francia

latitudine: 47-19N, longitudine: 002-10W, altezza: 3 m

Osservazione

Il bollettino è stato emesso 25 minuti fa, alle 22:30 UTC
Vento 4 kt da nord/nord-ovest
Temperature 21°C
Umidità 69%
Pressione 1018 hPa
Visibilità 10 km o più
nessuna nube inferiore a 1500 m e nessun cumulonembo

METAR: LFRZ 222230Z AUTO 34004KT CAVOK 21/15 Q1018 NOSIG

Ora: 00:55 (22:55 UTC)

Previsione

Il bollettino è stato emesso 5 ore e 55 minuti fa, alle 17:00 UTC
Previsione valida dal 22 alle 18 UTC al 23 alle 18 UTC
Vento 3 kt da direzioni variabili
Visibilità 10 km o più
nessuna nube inferiore a 1500 m e nessun cumulonembo
Evoluzione graduale
dal 23 alle 09 UTC al 23 alle 12 UTC
Vento 12 kt da sud-est

TAF: LFRZ 221700Z 2218/2318 VRB03KT CAVOK BECMG 2309/2312 14012KT

Osservazioni e previsioni meteorologiche di più di 4000 aeroporti (messaggi METAR e TAF).

Le stazioni disponibili sono rappresentate dai dischi gialli e rossi sulla carta.

Puntare il mouse per vedere il nome della stazione.

Clicca sopra per visualizzare le osservazioni e previsioni meteorologiche.

Per cambiare la mappa : fare clic sui pulsanti verdi con una croce nera per ingrandire, il pulsante verde con un trattino per diminuire, o sulla freccia verde per le mappe adiacenti.


METAR-TAF: